Time;durP1;ratioP1;P1;durP2;ratioP2;P2;SDS_P1;SDS_P2;PMS_P1;PMS_P2;Temp;Humidity;BMP_temperature;BMP_pressure;BME280_temperature;BME280_humidity;BME280_pressure;Samples;Min_cycle;Max_cycle;Signal;HPM_P1;HPM_P2
2021/10/11 00:00:09;;;;;;;9.50;3.72;;;13.50;83.30;;;;;;5073440;28;20044;-82
2021/10/11 00:02:35;;;;;;;9.25;4.05;;;13.50;83.30;;;;;;5072950;28;20554;-82
2021/10/11 00:05:04;;;;;;;14.57;4.13;;;13.50;83.30;;;;;;5073705;28;20074;-83
2021/10/11 00:07:31;;;;;;;10.98;4.10;;;13.50;83.30;;;;;;5073181;28;20497;-81
2021/10/11 00:09:58;;;;;;;10.30;3.75;;;13.50;83.20;;;;;;5072341;28;20568;-83
2021/10/11 00:12:25;;;;;;;12.30;3.78;;;13.50;83.20;;;;;;5073126;28;20525;-82
2021/10/11 00:14:52;;;;;;;14.15;3.85;;;13.50;83.20;;;;;;5073287;28;20041;-82
2021/10/11 00:17:19;;;;;;;15.50;3.90;;;13.50;83.10;;;;;;5073635;28;20052;-82
2021/10/11 00:19:50;;;;;;;11.35;3.72;;;13.40;83.00;;;;;;5072961;28;20044;-82
2021/10/11 00:22:18;;;;;;;11.88;3.90;;;13.40;82.90;;;;;;5072953;28;20048;-82
2021/10/11 00:24:45;;;;;;;10.82;3.08;;;13.40;82.80;;;;;;5072222;28;20071;-82
2021/10/11 00:27:13;;;;;;;10.70;2.95;;;13.30;82.70;;;;;;5072930;28;20044;-82
2021/10/11 00:29:40;;;;;;;9.20;3.53;;;13.30;82.70;;;;;;5072313;28;20049;-82
2021/10/11 00:32:08;;;;;;;11.32;3.42;;;13.20;82.60;;;;;;5072896;28;20056;-82
2021/10/11 00:34:36;;;;;;;8.70;3.00;;;13.10;82.60;;;;;;5072597;28;20590;-82
2021/10/11 00:37:05;;;;;;;13.10;3.33;;;13.10;82.50;;;;;;5072456;28;20127;-82
2021/10/11 00:39:32;;;;;;;12.93;3.10;;;13.10;82.50;;;;;;5071900;28;20074;-82
2021/10/11 00:41:59;;;;;;;9.93;3.33;;;13.10;82.40;;;;;;5068325;28;20040;-82
2021/10/11 00:44:26;;;;;;;8.77;3.08;;;13.00;82.30;;;;;;5073140;28;20097;-82
2021/10/11 00:46:53;;;;;;;9.18;2.20;;;12.90;82.30;;;;;;5072049;28;20048;-82
2021/10/11 00:49:20;;;;;;;8.02;2.47;;;12.90;82.30;;;;;;5072313;28;20493;-83
2021/10/11 00:51:47;;;;;;;9.05;2.78;;;12.90;82.20;;;;;;5072226;28;20048;-82
2021/10/11 00:54:14;;;;;;;9.35;2.95;;;12.90;82.10;;;;;;5071754;28;20505;-82
2021/10/11 00:56:41;;;;;;;14.02;3.08;;;12.80;82.00;;;;;;5072571;28;20098;-82
2021/10/11 00:59:08;;;;;;;14.05;3.35;;;12.70;81.90;;;;;;5070588;28;20048;-82
2021/10/11 01:01:35;;;;;;;12.45;3.67;;;12.70;81.80;;;;;;5071546;28;20048;-83
2021/10/11 01:04:05;;;;;;;10.15;3.20;;;12.60;81.70;;;;;;5072263;28;20040;-82
2021/10/11 01:06:38;;;;;;;10.20;3.17;;;12.60;81.50;;;;;;5072136;28;20056;-82
2021/10/11 01:09:06;;;;;;;8.40;2.80;;;12.50;81.50;;;;;;5071496;28;20040;-82
2021/10/11 01:11:35;;;;;;;6.30;2.85;;;12.50;81.50;;;;;;5072303;28;20103;-82
2021/10/11 01:14:04;;;;;;;9.13;3.20;;;12.50;81.40;;;;;;5071631;28;20459;-82
2021/10/11 01:16:31;;;;;;;9.82;2.90;;;12.40;81.40;;;;;;5071529;28;20563;-82
2021/10/11 01:18:59;;;;;;;9.18;3.08;;;12.40;81.30;;;;;;5071863;28;20459;-82
2021/10/11 01:21:26;;;;;;;10.45;3.10;;;12.40;81.40;;;;;;5071876;28;20520;-82
2021/10/11 01:23:54;;;;;;;10.52;3.15;;;12.30;81.30;;;;;;5071181;28;20052;-82
2021/10/11 01:26:21;;;;;;;10.52;3.45;;;12.30;81.30;;;;;;5072087;28;20083;-82
2021/10/11 01:28:48;;;;;;;10.90;3.80;;;12.20;81.20;;;;;;5071500;28;20049;-82
2021/10/11 01:31:18;;;;;;;11.65;3.22;;;12.20;81.20;;;;;;5071391;28;20059;-82
2021/10/11 01:33:45;;;;;;;13.40;3.25;;;12.10;81.30;;;;;;5071804;28;20052;-82
2021/10/11 01:36:11;;;;;;;9.63;3.38;;;12.10;81.30;;;;;;5071393;28;20040;-83
2021/10/11 01:38:38;;;;;;;9.63;3.25;;;12.00;81.30;;;;;;5071501;28;20052;-82
2021/10/11 01:41:05;;;;;;;11.90;3.08;;;12.00;81.30;;;;;;5069983;28;20127;-82
2021/10/11 01:43:32;;;;;;;8.13;3.20;;;11.90;81.40;;;;;;5068687;28;20048;-82
2021/10/11 01:45:59;;;;;;;12.10;3.67;;;11.90;81.40;;;;;;5071181;28;20094;-82
2021/10/11 01:48:26;;;;;;;8.70;3.47;;;11.90;81.40;;;;;;5071491;28;20512;-82
2021/10/11 01:50:53;;;;;;;9.45;2.90;;;11.90;81.50;;;;;;5071272;28;20110;-82
2021/10/11 01:53:19;;;;;;;9.38;2.95;;;11.80;81.40;;;;;;5071808;28;20106;-82
2021/10/11 01:55:46;;;;;;;10.98;3.28;;;11.70;81.30;;;;;;5071154;28;20048;-82
2021/10/11 01:58:15;;;;;;;7.28;2.78;;;11.70;81.20;;;;;;5071498;28;20127;-83
2021/10/11 02:00:42;;;;;;;12.63;3.58;;;11.70;81.00;;;;;;5071092;28;20555;-82
2021/10/11 02:03:09;;;;;;;8.82;3.10;;;11.60;81.00;;;;;;5071479;28;20049;-82
2021/10/11 02:05:36;;;;;;;11.80;3.15;;;11.60;81.10;;;;;;5071092;28;20460;-82
2021/10/11 02:08:03;;;;;;;12.63;3.85;;;11.60;81.20;;;;;;5071441;28;20121;-82
2021/10/11 02:10:31;;;;;;;9.57;3.15;;;11.50;81.20;;;;;;5071384;28;20603;-82
2021/10/11 02:12:58;;;;;;;10.70;3.40;;;11.50;81.30;;;;;;5071189;28;20563;-82
2021/10/11 02:15:26;;;;;;;9.15;2.95;;;11.40;81.30;;;;;;5071099;28;20474;-82
2021/10/11 02:17:53;;;;;;;7.82;2.80;;;11.40;81.20;;;;;;5071434;28;20094;-83
2021/10/11 02:20:20;;;;;;;7.95;3.00;;;11.40;81.10;;;;;;5071517;28;20045;-82
2021/10/11 02:22:47;;;;;;;9.52;2.92;;;11.40;81.10;;;;;;5070593;28;20517;-82
2021/10/11 02:25:15;;;;;;;5.43;2.67;;;11.40;81.10;;;;;;5071087;28;20124;-82
2021/10/11 02:27:42;;;;;;;7.38;2.70;;;11.30;81.00;;;;;;5071029;28;20049;-82
2021/10/11 02:30:11;;;;;;;6.75;2.60;;;11.20;80.90;;;;;;5071157;28;20045;-83
2021/10/11 02:32:39;;;;;;;7.85;2.50;;;11.20;80.70;;;;;;5071213;28;20114;-82
2021/10/11 02:35:07;;;;;;;8.07;2.50;;;11.20;80.60;;;;;;5071208;28;20094;-83
2021/10/11 02:37:34;;;;;;;5.78;2.65;;;11.20;80.60;;;;;;5070725;28;20045;-82
2021/10/11 02:40:02;;;;;;;7.22;2.92;;;11.10;80.40;;;;;;5071112;28;20100;-82
2021/10/11 02:42:29;;;;;;;9.63;3.45;;;11.10;80.50;;;;;;5066793;28;20154;-83
2021/10/11 02:44:56;;;;;;;9.95;2.90;;;11.10;80.60;;;;;;5070605;28;20094;-83
2021/10/11 02:47:22;;;;;;;7.70;2.65;;;11.00;80.70;;;;;;5071540;28;20078;-83
2021/10/11 02:49:49;;;;;;;6.82;2.83;;;11.10;80.50;;;;;;5070273;28;20106;-82
2021/10/11 02:52:16;;;;;;;5.53;2.63;;;11.00;80.40;;;;;;5072155;28;20106;-82
2021/10/11 02:54:43;;;;;;;6.93;3.28;;;11.00;80.40;;;;;;5074796;28;20040;-83
2021/10/11 02:57:10;;;;;;;9.05;3.03;;;10.90;80.40;;;;;;5074622;28;20505;-83
2021/10/11 02:59:37;;;;;;;11.27;3.00;;;10.90;80.40;;;;;;5074462;28;20118;-82
2021/10/11 03:02:04;;;;;;;7.22;2.72;;;10.90;80.50;;;;;;5074979;28;20505;-83
2021/10/11 03:04:30;;;;;;;13.40;3.00;;;10.90;80.50;;;;;;5073982;28;20040;-83
2021/10/11 03:06:57;;;;;;;7.47;3.08;;;10.90;80.50;;;;;;5073956;28;20049;-83
2021/10/11 03:09:24;;;;;;;5.95;2.70;;;10.90;80.40;;;;;;5074382;28;20040;-82
2021/10/11 03:11:51;;;;;;;7.45;2.80;;;10.80;80.40;;;;;;5074464;28;20102;-83
2021/10/11 03:14:18;;;;;;;7.68;2.92;;;10.80;80.40;;;;;;5074678;28;20118;-82
2021/10/11 03:16:44;;;;;;;6.35;2.47;;;10.80;80.40;;;;;;5074237;28;20118;-83
2021/10/11 03:19:11;;;;;;;8.85;2.80;;;10.70;80.40;;;;;;5073867;28;20048;-83
2021/10/11 03:21:38;;;;;;;7.78;3.22;;;10.70;80.40;;;;;;5074148;28;20079;-83
2021/10/11 03:24:05;;;;;;;6.22;2.75;;;10.70;80.50;;;;;;5074224;28;20044;-82
2021/10/11 03:26:32;;;;;;;10.13;3.10;;;10.70;80.60;;;;;;5073993;28;20102;-82
2021/10/11 03:28:59;;;;;;;7.70;2.90;;;10.70;80.60;;;;;;5073255;28;20052;-83
2021/10/11 03:31:26;;;;;;;8.23;3.35;;;10.60;80.60;;;;;;5073693;28;20549;-82
2021/10/11 03:33:53;;;;;;;7.35;3.40;;;10.60;80.70;;;;;;5073559;28;20410;-82
2021/10/11 03:36:20;;;;;;;8.18;3.47;;;10.60;80.80;;;;;;5074045;28;20053;-82
2021/10/11 03:38:46;;;;;;;11.90;3.38;;;10.60;80.80;;;;;;5073620;28;20098;-82
2021/10/11 03:41:13;;;;;;;9.23;3.72;;;10.60;80.90;;;;;;5071948;28;20123;-82
2021/10/11 03:43:40;;;;;;;9.60;3.25;;;10.50;80.90;;;;;;5071945;28;20052;-82
2021/10/11 03:46:07;;;;;;;9.65;3.72;;;10.50;81.00;;;;;;5073269;28;20542;-82
2021/10/11 03:48:34;;;;;;;13.10;3.45;;;10.50;81.00;;;;;;5073270;28;20102;-83
2021/10/11 03:51:00;;;;;;;9.02;3.55;;;10.40;81.00;;;;;;5073734;28;20153;-83
2021/10/11 03:53:28;;;;;;;9.70;3.50;;;10.40;81.00;;;;;;5073988;28;20048;-82
2021/10/11 03:55:54;;;;;;;8.80;3.78;;;10.40;81.10;;;;;;5073685;28;20459;-83
2021/10/11 03:58:21;;;;;;;9.15;3.88;;;10.40;81.10;;;;;;5073514;28;20040;-83
2021/10/11 04:00:48;;;;;;;10.07;4.07;;;10.40;81.10;;;;;;5072966;28;20458;-83
2021/10/11 04:03:15;;;;;;;9.02;3.88;;;10.30;81.20;;;;;;5072234;28;20049;-83
2021/10/11 04:05:42;;;;;;;9.20;3.60;;;10.30;81.20;;;;;;5073584;28;20114;-83
2021/10/11 04:08:12;;;;;;;8.02;3.90;;;10.30;81.20;;;;;;5071495;28;20080;-82
2021/10/11 04:10:50;;;;;;;10.55;3.75;;;10.30;81.10;;;;;;5073082;28;20044;-83
2021/10/11 04:13:20;;;;;;;8.98;4.00;;;10.30;81.10;;;;;;5073194;28;20048;-83
2021/10/11 04:15:48;;;;;;;9.02;3.60;;;10.30;81.10;;;;;;5072484;28;20044;-83
2021/10/11 04:18:18;;;;;;;6.07;3.30;;;10.20;81.10;;;;;;5073247;28;20531;-83
2021/10/11 04:20:45;;;;;;;11.55;4.18;;;10.20;81.00;;;;;;5073057;28;20071;-83
2021/10/11 04:23:12;;;;;;;10.80;4.85;;;10.20;80.90;;;;;;5073404;28;20105;-82
2021/10/11 04:25:39;;;;;;;8.63;3.95;;;10.20;80.90;;;;;;5072892;28;20048;-83
2021/10/11 04:28:08;;;;;;;10.23;4.57;;;10.20;81.00;;;;;;5072889;28;20102;-83
2021/10/11 04:30:36;;;;;;;8.50;3.88;;;10.20;81.00;;;;;;5072154;28;20052;-83
2021/10/11 04:33:03;;;;;;;15.60;4.25;;;10.20;81.00;;;;;;5072714;28;20053;-83
2021/10/11 04:35:29;;;;;;;10.40;4.60;;;10.10;81.10;;;;;;5072942;28;20052;-83
2021/10/11 04:37:56;;;;;;;11.20;4.03;;;10.10;81.00;;;;;;5071063;28;20053;-83
2021/10/11 04:40:23;;;;;;;10.27;4.32;;;10.10;81.00;;;;;;5072587;28;20416;-82
2021/10/11 04:42:50;;;;;;;8.65;4.47;;;10.10;81.10;;;;;;5068449;28;20078;-83
2021/10/11 04:45:17;;;;;;;11.35;4.45;;;10.10;81.10;;;;;;5072019;28;20041;-82
2021/10/11 04:47:44;;;;;;;14.13;5.05;;;10.00;81.10;;;;;;5072516;28;20460;-83
2021/10/11 04:50:11;;;;;;;14.52;4.80;;;10.00;81.10;;;;;;5073023;28;20044;-83
2021/10/11 04:52:38;;;;;;;9.43;4.68;;;10.00;81.10;;;;;;5072038;28;20048;-83
2021/10/11 04:55:05;;;;;;;11.98;4.82;;;10.00;81.10;;;;;;5072339;28;20045;-83
2021/10/11 04:57:32;;;;;;;13.82;5.55;;;10.00;81.10;;;;;;5072366;28;20071;-82
2021/10/11 04:59:59;;;;;;;10.18;4.90;;;10.00;81.20;;;;;;5071811;28;20041;-83
2021/10/11 05:02:25;;;;;;;11.32;4.60;;;9.90;81.30;;;;;;5072439;28;20056;-83
2021/10/11 05:04:52;;;;;;;7.88;4.30;;;9.90;81.30;;;;;;5072251;28;20045;-82
2021/10/11 05:07:19;;;;;;;10.98;4.88;;;9.90;81.30;;;;;;5071889;28;20052;-83
2021/10/11 05:09:50;;;;;;;12.30;5.38;;;9.90;81.40;;;;;;5072144;28;20186;-83
2021/10/11 05:12:17;;;;;;;11.27;5.47;;;9.90;81.40;;;;;;5072272;28;20052;-83
2021/10/11 05:14:44;;;;;;;13.40;5.80;;;9.80;81.40;;;;;;5071206;28;20479;-83
2021/10/11 05:17:11;;;;;;;13.27;5.03;;;9.90;81.30;;;;;;5072593;28;20105;-83
2021/10/11 05:19:38;;;;;;;15.55;5.80;;;9.80;81.20;;;;;;5071780;28;20515;-83
2021/10/11 05:22:05;;;;;;;10.65;4.82;;;9.80;81.10;;;;;;5071615;28;20070;-83
2021/10/11 05:24:32;;;;;;;13.52;6.40;;;9.80;81.10;;;;;;5071749;28;20053;-83
2021/10/11 05:26:59;;;;;;;12.25;6.00;;;9.80;81.10;;;;;;5071825;28;20095;-83
2021/10/11 05:29:26;;;;;;;9.48;5.15;;;9.80;81.20;;;;;;5071714;28;20048;-83
2021/10/11 05:31:53;;;;;;;8.10;4.90;;;9.80;81.20;;;;;;5071774;28;20098;-82
2021/10/11 05:34:21;;;;;;;9.25;5.43;;;9.80;81.20;;;;;;5071694;28;20048;-83
2021/10/11 05:36:48;;;;;;;8.63;5.35;;;9.70;81.20;;;;;;5071287;28;20052;-83
2021/10/11 05:39:15;;;;;;;13.05;6.13;;;9.70;81.20;;;;;;5071876;28;20052;-83
2021/10/11 05:41:42;;;;;;;11.55;5.10;;;9.70;81.20;;;;;;5067409;28;20049;-84
2021/10/11 05:44:09;;;;;;;12.38;5.40;;;9.70;81.10;;;;;;5069442;28;20056;-85
2021/10/11 05:46:37;;;;;;;15.00;5.40;;;9.70;81.10;;;;;;5071516;28;20048;-85
2021/10/11 05:49:10;;;;;;;;;;;9.70;81.10;;;;;;5071869;28;20596;-86
2021/10/11 05:51:38;;;;;;;10.35;5.60;;;9.60;81.00;;;;;;5071165;28;19920;-85
2021/10/11 05:54:05;;;;;;;10.30;5.38;;;9.60;81.10;;;;;;5071438;28;20040;-85
2021/10/11 05:56:32;;;;;;;10.65;5.60;;;9.60;81.10;;;;;;5071822;28;20106;-85
2021/10/11 05:58:58;;;;;;;13.88;5.50;;;9.60;81.20;;;;;;5071189;28;20055;-85
2021/10/11 06:01:26;;;;;;;12.45;5.95;;;9.50;81.20;;;;;;5071465;28;20044;-85
2021/10/11 06:03:53;;;;;;;8.55;5.53;;;9.50;81.30;;;;;;5071266;28;20054;-83
2021/10/11 06:06:19;;;;;;;13.40;5.55;;;9.50;81.30;;;;;;5069785;28;20456;-83
2021/10/11 06:08:46;;;;;;;15.30;5.40;;;9.50;81.30;;;;;;5071365;28;20049;-83
2021/10/11 06:11:17;;;;;;;13.05;5.50;;;9.50;81.30;;;;;;5072122;28;20074;-83
2021/10/11 06:13:44;;;;;;;13.00;5.82;;;9.40;81.20;;;;;;5070625;28;20048;-83
2021/10/11 06:16:11;;;;;;;9.93;6.13;;;9.40;81.20;;;;;;5069364;28;20037;-83
2021/10/11 06:18:38;;;;;;;10.65;5.35;;;9.40;81.10;;;;;;5073859;28;20052;-83
2021/10/11 06:21:06;;;;;;;17.60;5.95;;;9.40;81.20;;;;;;5068560;28;20045;-82
2021/10/11 06:23:33;;;;;;;18.23;5.88;;;9.40;81.20;;;;;;5073173;28;20070;-83
2021/10/11 06:26:00;;;;;;;16.40;6.72;;;9.40;81.20;;;;;;5074700;28;20517;-83
2021/10/11 06:28:27;;;;;;;10.80;6.50;;;9.40;81.30;;;;;;5074652;28;20048;-83
2021/10/11 06:30:54;;;;;;;14.10;6.80;;;9.40;81.40;;;;;;5075610;28;20044;-82
2021/10/11 06:33:22;;;;;;;12.05;7.32;;;9.40;81.60;;;;;;5074307;28;20043;-82
2021/10/11 06:35:49;;;;;;;18.20;7.38;;;9.30;81.70;;;;;;5072982;28;20571;-83
2021/10/11 06:38:17;;;;;;;19.60;7.78;;;9.30;81.90;;;;;;5079012;28;20044;-84
2021/10/11 06:40:46;;;;;;;13.10;6.93;;;9.30;82.00;;;;;;5075203;28;20049;-83
2021/10/11 06:43:13;;;;;;;13.35;6.97;;;9.30;82.10;;;;;;5075131;28;20048;-83
2021/10/11 06:45:40;;;;;;;13.98;6.88;;;9.30;82.20;;;;;;5075125;28;20040;-83
2021/10/11 06:48:07;;;;;;;13.88;7.18;;;9.30;82.20;;;;;;5071842;28;20049;-83
2021/10/11 06:50:35;;;;;;;14.35;7.97;;;9.30;82.30;;;;;;5076484;28;20044;-83
2021/10/11 06:53:03;;;;;;;14.50;6.22;;;9.30;82.30;;;;;;5078652;28;20066;-83
2021/10/11 06:55:30;;;;;;;23.73;8.80;;;9.30;82.40;;;;;;5075031;28;20037;-83
2021/10/11 06:58:00;;;;;;;12.55;8.25;;;9.30;82.40;;;;;;5076195;28;20126;-83
2021/10/11 07:00:27;;;;;;;14.73;8.32;;;9.40;82.40;;;;;;5086698;28;20450;-83
2021/10/11 07:02:54;;;;;;;11.48;7.63;;;9.40;82.40;;;;;;5071511;28;20041;-83
2021/10/11 07:05:21;;;;;;;14.00;6.97;;;9.40;82.40;;;;;;5078540;28;20053;-83
2021/10/11 07:07:48;;;;;;;11.75;6.90;;;9.40;82.40;;;;;;5074773;28;20232;-84
2021/10/11 07:10:15;;;;;;;20.80;10.55;;;9.40;82.40;;;;;;5074654;28;20074;-83
2021/10/11 07:12:42;;;;;;;30.20;20.63;;;9.40;82.40;;;;;;5074596;28;20109;-83
2021/10/11 07:15:21;;;;;;;33.58;16.67;;;9.40;82.40;;;;;;5072885;28;20421;-82
2021/10/11 07:17:48;;;;;;;36.30;19.35;;;9.50;82.40;;;;;;5072764;28;20056;-83
2021/10/11 07:20:16;;;;;;;30.20;17.70;;;9.50;82.50;;;;;;5077544;28;20098;-82
2021/10/11 07:22:43;;;;;;;27.75;16.55;;;9.50;82.50;;;;;;5074614;28;20127;-83
2021/10/11 07:25:09;;;;;;;28.20;14.43;;;9.50;82.60;;;;;;5074283;28;20060;-83
2021/10/11 07:27:36;;;;;;;24.98;15.50;;;9.50;82.60;;;;;;5074197;28;20474;-83
2021/10/11 07:30:04;;;;;;;20.48;12.13;;;9.50;82.60;;;;;;5071025;28;20107;-82
2021/10/11 07:32:31;;;;;;;23.05;13.63;;;9.60;82.60;;;;;;5076966;28;20578;-83
2021/10/11 07:34:59;;;;;;;21.38;12.32;;;9.60;82.70;;;;;;5075639;28;20052;-83
2021/10/11 07:37:26;;;;;;;21.73;13.32;;;9.60;82.70;;;;;;5081437;28;20090;-83
2021/10/11 07:39:53;;;;;;;22.42;12.07;;;9.70;82.80;;;;;;5080875;28;20052;-83
2021/10/11 07:42:20;;;;;;;29.50;11.75;;;9.70;83.00;;;;;;5071724;28;20036;-83
2021/10/11 07:44:46;;;;;;;19.27;10.88;;;9.70;83.10;;;;;;5071833;28;20052;-82
2021/10/11 07:47:13;;;;;;;12.77;8.98;;;9.80;83.30;;;;;;5075945;28;20550;-82
2021/10/11 07:49:40;;;;;;;16.73;8.75;;;9.80;83.40;;;;;;5072914;28;20106;-82
2021/10/11 07:52:07;;;;;;;21.58;9.88;;;9.90;83.50;;;;;;5073050;28;20048;-82
2021/10/11 07:54:34;;;;;;;22.50;10.00;;;9.90;83.60;;;;;;5074216;28;20101;-82
2021/10/11 07:57:01;;;;;;;19.48;9.70;;;10.00;83.80;;;;;;5068801;28;20044;-83
2021/10/11 07:59:28;;;;;;;14.45;9.50;;;10.00;83.90;;;;;;5076849;28;20060;-87
2021/10/11 08:01:56;;;;;;;26.90;11.07;;;10.10;84.20;;;;;;5075277;28;20127;-83
2021/10/11 08:04:24;;;;;;;28.65;11.15;;;10.20;84.30;;;;;;5072515;28;20566;-83
2021/10/11 08:06:50;;;;;;;20.63;10.98;;;10.30;84.50;;;;;;5072594;28;20095;-82
2021/10/11 08:09:17;;;;;;;19.75;9.98;;;10.40;84.60;;;;;;5072896;28;20044;-84
2021/10/11 08:11:44;;;;;;;21.02;9.77;;;10.40;84.60;;;;;;5066459;28;20045;-83
2021/10/11 08:14:11;;;;;;;17.77;9.55;;;10.50;84.70;;;;;;5101724;28;20048;-83
2021/10/11 08:16:40;;;;;;;21.15;9.85;;;10.60;84.70;;;;;;5076798;28;20044;-82
2021/10/11 08:19:09;;;;;;;17.35;9.82;;;10.70;84.70;;;;;;5073970;28;20052;-82
2021/10/11 08:21:36;;;;;;;21.60;9.75;;;10.70;84.70;;;;;;5073418;28;20051;-83
2021/10/11 08:24:04;;;;;;;22.08;9.90;;;10.80;84.80;;;;;;5069055;28;20056;-83
2021/10/11 08:26:34;;;;;;;25.35;9.38;;;10.90;84.90;;;;;;5075354;28;20571;-83
2021/10/11 08:29:02;;;;;;;19.35;9.68;;;10.90;85.00;;;;;;5074726;28;20114;-83
2021/10/11 08:31:32;;;;;;;18.75;9.57;;;11.00;85.00;;;;;;5073013;28;20497;-82
2021/10/11 08:34:00;;;;;;;20.00;9.98;;;11.10;85.10;;;;;;5073726;28;20052;-83
2021/10/11 08:36:27;;;;;;;19.35;9.80;;;11.20;85.10;;;;;;5073015;28;20090;-83
2021/10/11 08:38:54;;;;;;;20.90;11.00;;;11.20;85.10;;;;;;5069144;28;20048;-82
2021/10/11 08:41:22;;;;;;;23.17;10.60;;;11.30;85.10;;;;;;5077006;28;20049;-82
2021/10/11 08:43:48;;;;;;;31.83;11.20;;;11.30;85.10;;;;;;5073017;28;20501;-82
2021/10/11 08:46:16;;;;;;;22.35;11.35;;;11.40;85.10;;;;;;5072903;28;20041;-85
2021/10/11 08:48:43;;;;;;;20.45;10.18;;;11.40;85.10;;;;;;5073426;28;20424;-82
2021/10/11 08:51:10;;;;;;;17.50;9.20;;;11.50;85.20;;;;;;5068277;28;20048;-84
2021/10/11 08:53:37;;;;;;;20.77;9.40;;;11.50;85.20;;;;;;5072727;28;20044;-83
2021/10/11 08:56:05;;;;;;;20.30;8.95;;;11.60;85.20;;;;;;5075668;28;20052;-83
2021/10/11 08:58:50;;;;;;;20.20;10.15;;;11.70;85.30;;;;;;5071620;28;20072;-83
2021/10/11 09:01:22;;;;;;;29.58;10.48;;;11.80;85.30;;;;;;5071785;28;20052;-83
2021/10/11 09:03:49;;;;;;;19.67;9.82;;;11.90;85.30;;;;;;5071463;28;20504;-83
2021/10/11 09:06:16;;;;;;;24.02;10.23;;;11.90;85.30;;;;;;5069199;28;20045;-83
2021/10/11 09:08:44;;;;;;;16.23;9.25;;;12.10;85.30;;;;;;5070911;28;20134;-84
2021/10/11 09:11:12;;;;;;;23.55;9.52;;;12.20;85.30;;;;;;5073921;28;20056;-83
2021/10/11 09:13:45;;;;;;;23.95;8.55;;;12.30;85.30;;;;;;5071270;28;20057;-83
2021/10/11 09:16:18;;;;;;;25.17;9.90;;;12.40;85.30;;;;;;5071447;28;20054;-81
2021/10/11 09:18:57;;;;;;;20.85;8.25;;;12.50;85.20;;;;;;5071314;28;20048;-83
2021/10/11 09:21:34;;;;;;;25.48;8.63;;;12.60;85.20;;;;;;5070183;28;20117;-83
2021/10/11 09:24:06;;;;;;;19.83;8.48;;;12.70;85.20;;;;;;5051416;28;20049;-82
2021/10/11 09:26:44;;;;;;;21.02;6.65;;;12.80;85.10;;;;;;5072676;28;20513;-83
2021/10/11 09:29:12;;;;;;;20.88;7.20;;;12.90;85.00;;;;;;5073627;28;20049;-83
2021/10/11 09:31:45;;;;;;;22.23;7.03;;;12.90;84.90;;;;;;5070942;28;20044;-83
2021/10/11 09:34:19;;;;;;;17.15;6.82;;;13.10;84.80;;;;;;5071318;28;20048;-83
2021/10/11 09:37:17;;;;;;;18.85;6.53;;;13.10;84.60;;;;;;5070874;28;20052;-83
2021/10/11 09:39:44;;;;;;;23.48;7.00;;;13.30;84.50;;;;;;5062398;28;20105;-83
2021/10/11 09:42:16;;;;;;;23.10;5.55;;;13.40;84.40;;;;;;5068207;28;20037;-84
2021/10/11 09:44:54;;;;;;;17.83;5.25;;;13.50;84.40;;;;;;5070892;28;20059;-84
2021/10/11 09:47:31;;;;;;;18.27;4.63;;;13.60;84.20;;;;;;5074660;28;20048;-84
2021/10/11 09:50:01;;;;;;;18.20;4.57;;;13.60;84.00;;;;;;5083976;28;20101;-83
2021/10/11 09:52:29;;;;;;;19.00;5.40;;;13.80;83.50;;;;;;5074359;28;20542;-83
2021/10/11 09:54:57;;;;;;;20.77;4.68;;;13.90;83.20;;;;;;5069616;28;20049;-84
2021/10/11 09:57:24;;;;;;;16.75;5.43;;;13.90;83.00;;;;;;5069875;28;20040;-84
2021/10/11 09:59:52;;;;;;;21.05;4.57;;;14.10;82.80;;;;;;5068527;28;20455;-84
2021/10/11 10:02:26;;;;;;;19.98;4.88;;;14.20;82.70;;;;;;5073698;28;20047;-84
2021/10/11 10:05:01;;;;;;;20.88;5.00;;;14.30;82.30;;;;;;5071144;28;20088;-84
2021/10/11 10:07:34;;;;;;;16.48;4.38;;;14.40;82.00;;;;;;5070975;28;20048;-84
2021/10/11 10:10:05;;;;;;;14.65;5.07;;;14.40;81.60;;;;;;5072341;28;20048;-84
2021/10/11 10:12:41;;;;;;;23.35;5.07;;;14.50;81.40;;;;;;5070762;28;20051;-84
2021/10/11 10:15:09;;;;;;;15.60;4.22;;;14.60;81.20;;;;;;5067545;28;20048;-84
2021/10/11 10:17:35;;;;;;;22.63;4.70;;;14.70;80.70;;;;;;5071534;28;20506;-84
2021/10/11 10:20:11;;;;;;;15.98;4.53;;;14.80;80.40;;;;;;5072194;28;20463;-84
2021/10/11 10:22:42;;;;;;;11.90;3.63;;;14.90;80.10;;;;;;5070493;28;20056;-85
2021/10/11 10:25:10;;;;;;;14.35;4.05;;;14.90;79.60;;;;;;5070220;28;20052;-85
2021/10/11 10:27:40;;;;;;;13.25;3.55;;;15.10;79.20;;;;;;5066822;28;20917;-86
2021/10/11 10:30:25;;;;;;;13.32;3.42;;;15.10;78.70;;;;;;5070006;28;20122;-86
2021/10/11 10:33:03;;;;;;;20.08;4.03;;;15.20;78.10;;;;;;5083763;28;20051;-85
2021/10/11 10:35:34;;;;;;;14.77;3.88;;;15.30;77.60;;;;;;5085156;28;20048;-86
2021/10/11 10:38:01;;;;;;;15.70;4.35;;;15.30;77.20;;;;;;5072484;28;20056;-85
2021/10/11 10:40:31;;;;;;;17.13;4.00;;;15.30;76.40;;;;;;5071125;28;20127;-85
2021/10/11 10:43:09;;;;;;;16.63;3.60;;;15.40;76.20;;;;;;5071483;28;20090;-84
2021/10/11 10:45:38;;;;;;;11.18;3.72;;;15.40;76.10;;;;;;5072052;28;20126;-85
2021/10/11 10:48:25;;;;;;;17.42;4.03;;;15.40;76.20;;;;;;5082430;28;20099;-85
2021/10/11 10:50:56;;;;;;;12.82;4.32;;;15.50;76.30;;;;;;5068829;28;20056;-87
2021/10/11 10:53:27;;;;;;;15.45;4.00;;;15.50;76.00;;;;;;5075671;28;20048;-84
2021/10/11 10:55:55;;;;;;;13.57;3.80;;;15.60;75.40;;;;;;5070224;28;20056;-84
2021/10/11 10:58:23;;;;;;;17.33;3.92;;;15.70;74.50;;;;;;5071301;28;20459;-85
2021/10/11 11:00:50;;;;;;;13.60;3.83;;;15.70;74.20;;;;;;5071405;28;20060;-85
2021/10/11 11:03:18;;;;;;;12.38;3.72;;;15.80;74.30;;;;;;5068953;28;20099;-84
2021/10/11 11:05:50;;;;;;;13.77;3.35;;;15.90;74.10;;;;;;5070824;28;20049;-85
2021/10/11 11:08:37;;;;;;;12.15;4.18;;;15.90;73.90;;;;;;5083143;28;20076;-87
2021/10/11 11:11:04;;;;;;;11.52;3.10;;;16.10;73.80;;;;;;5072870;28;20074;-87
2021/10/11 11:13:31;;;;;;;9.60;3.33;;;16.20;73.30;;;;;;5075112;28;20049;-88
2021/10/11 11:15:58;;;;;;;12.88;3.88;;;16.30;72.90;;;;;;5075027;28;20109;-86
2021/10/11 11:18:27;;;;;;;17.10;3.80;;;16.30;72.60;;;;;;5073583;28;20071;-88
2021/10/11 11:20:56;;;;;;;9.07;3.20;;;16.30;72.40;;;;;;5071665;28;20075;-85
2021/10/11 11:23:26;;;;;;;15.13;3.47;;;16.40;72.30;;;;;;5078627;28;20048;-87
2021/10/11 11:26:00;;;;;;;10.30;3.53;;;16.40;72.30;;;;;;5074362;28;20570;-86
2021/10/11 11:28:29;;;;;;;13.43;3.80;;;16.40;72.20;;;;;;5074445;28;20094;-87
2021/10/11 11:31:05;;;;;;;13.23;3.15;;;16.40;72.00;;;;;;5074545;28;20045;-87
2021/10/11 11:33:34;;;;;;;15.60;3.42;;;16.50;71.70;;;;;;5074220;28;20046;-86
2021/10/11 11:36:05;;;;;;;13.40;3.75;;;16.60;71.50;;;;;;5070488;28;20102;-88
2021/10/11 11:38:38;;;;;;;8.75;3.00;;;16.70;71.10;;;;;;5076533;28;20052;-89
2021/10/11 11:41:06;;;;;;;13.52;3.65;;;16.70;71.00;;;;;;5077991;28;20040;-87
2021/10/11 11:43:36;;;;;;;14.90;3.83;;;16.80;71.00;;;;;;5074482;28;20062;-89
2021/10/11 11:46:04;;;;;;;14.40;3.20;;;16.80;70.70;;;;;;5075726;28;20052;-86
2021/10/11 11:48:37;;;;;;;12.02;3.15;;;16.90;70.70;;;;;;5074027;28;20064;-86
2021/10/11 11:51:07;;;;;;;14.48;3.42;;;16.90;70.60;;;;;;5055401;28;20057;-86
2021/10/11 11:53:36;;;;;;;13.25;3.60;;;16.90;70.50;;;;;;5075477;28;20090;-85
2021/10/11 11:56:08;;;;;;;13.70;3.88;;;16.90;70.30;;;;;;5077559;28;20059;-85
2021/10/11 11:58:37;;;;;;;15.77;3.42;;;16.80;70.20;;;;;;5074008;28;20048;-85
2021/10/11 12:01:18;;;;;;;10.77;3.15;;;16.80;70.20;;;;;;5073199;28;20048;-86
2021/10/11 12:03:57;;;;;;;11.88;3.53;;;16.80;69.90;;;;;;5074008;28;20048;-85
2021/10/11 12:06:29;;;;;;;10.65;3.13;;;16.80;69.30;;;;;;5072917;28;20044;-86
2021/10/11 12:08:57;;;;;;;12.25;3.28;;;16.90;69.00;;;;;;5069955;28;20139;-86
2021/10/11 12:11:23;;;;;;;16.42;3.60;;;16.90;69.10;;;;;;5077907;28;20041;-86
2021/10/11 12:14:00;;;;;;;9.60;2.70;;;17.00;69.20;;;;;;5073700;28;20098;-86
2021/10/11 12:16:28;;;;;;;9.45;3.30;;;17.00;69.10;;;;;;5072831;28;20086;-86
2021/10/11 12:18:57;;;;;;;13.45;3.50;;;17.00;69.20;;;;;;5073657;28;20127;-85
2021/10/11 12:21:26;;;;;;;10.40;3.50;;;17.00;69.40;;;;;;5072709;28;20051;-85
2021/10/11 12:24:12;;;;;;;16.48;3.97;;;17.00;69.60;;;;;;5070306;28;20037;-87
2021/10/11 12:26:56;;;;;;;11.25;3.55;;;17.10;69.40;;;;;;5085903;28;20055;-88
2021/10/11 12:29:27;;;;;;;8.73;2.75;;;17.10;68.60;;;;;;5077449;28;20585;-85
2021/10/11 12:31:57;;;;;;;13.88;3.38;;;17.10;68.10;;;;;;5072930;28;20106;-86
2021/10/11 12:34:32;;;;;;;9.57;3.20;;;17.00;66.90;;;;;;5073225;28;20435;-86
2021/10/11 12:37:08;;;;;;;8.18;2.80;;;17.00;66.90;;;;;;5073295;28;20040;-86
2021/10/11 12:39:38;;;;;;;10.75;3.05;;;16.90;67.00;;;;;;5072943;28;20424;-86
2021/10/11 12:42:22;;;;;;;9.40;3.42;;;16.90;67.30;;;;;;5069950;28;20106;-86
2021/10/11 12:44:56;;;;;;;11.20;2.83;;;16.80;67.80;;;;;;5071124;28;20052;-87
2021/10/11 12:47:26;;;;;;;11.27;2.80;;;16.90;68.00;;;;;;5077042;28;20169;-87